sensor_id;sensor_type;location;lat;lon;timestamp;P1;durP1;ratioP1;P2;durP2;ratioP2
45254;SDS011;30989;52.078;21.014;2022-10-30T00:02:11;21.13;;;8.75;;
45254;SDS011;30989;52.078;21.014;2022-10-30T00:04:36;19.98;;;9.25;;
45254;SDS011;30989;52.078;21.014;2022-10-30T00:07:02;18.20;;;9.35;;
45254;SDS011;30989;52.078;21.014;2022-10-30T00:09:27;22.25;;;9.50;;
45254;SDS011;30989;52.078;21.014;2022-10-30T00:11:52;20.83;;;9.45;;
45254;SDS011;30989;52.078;21.014;2022-10-30T00:14:18;19.88;;;9.27;;
45254;SDS011;30989;52.078;21.014;2022-10-30T00:16:43;17.75;;;8.82;;
45254;SDS011;30989;52.078;21.014;2022-10-30T00:19:09;18.10;;;8.82;;
45254;SDS011;30989;52.078;21.014;2022-10-30T00:21:34;28.98;;;9.07;;
45254;SDS011;30989;52.078;21.014;2022-10-30T00:24:00;18.92;;;8.25;;
45254;SDS011;30989;52.078;21.014;2022-10-30T00:26:25;19.55;;;8.63;;
45254;SDS011;30989;52.078;21.014;2022-10-30T00:28:52;16.30;;;8.23;;
45254;SDS011;30989;52.078;21.014;2022-10-30T00:31:19;21.40;;;10.10;;
45254;SDS011;30989;52.078;21.014;2022-10-30T00:33:52;18.85;;;8.13;;
45254;SDS011;30989;52.078;21.014;2022-10-30T00:36:19;19.90;;;9.07;;
45254;SDS011;30989;52.078;21.014;2022-10-30T00:38:45;16.83;;;8.10;;
45254;SDS011;30989;52.078;21.014;2022-10-30T00:41:18;17.30;;;8.10;;
45254;SDS011;30989;52.078;21.014;2022-10-30T00:43:46;24.15;;;9.52;;
45254;SDS011;30989;52.078;21.014;2022-10-30T00:49:00;17.40;;;8.18;;
45254;SDS011;30989;52.078;21.014;2022-10-30T00:51:31;24.27;;;9.02;;
45254;SDS011;30989;52.078;21.014;2022-10-30T00:53:58;18.83;;;7.82;;
45254;SDS011;30989;52.078;21.014;2022-10-30T00:56:27;18.75;;;8.23;;
45254;SDS011;30989;52.078;21.014;2022-10-30T00:58:54;16.65;;;8.20;;
45254;SDS011;30989;52.078;21.014;2022-10-30T01:01:25;18.50;;;9.98;;
45254;SDS011;30989;52.078;21.014;2022-10-30T01:03:57;22.50;;;9.67;;
45254;SDS011;30989;52.078;21.014;2022-10-30T01:06:26;15.82;;;9.15;;
45254;SDS011;30989;52.078;21.014;2022-10-30T01:08:53;23.20;;;9.52;;
45254;SDS011;30989;52.078;21.014;2022-10-30T01:11:19;22.27;;;8.77;;
45254;SDS011;30989;52.078;21.014;2022-10-30T01:13:45;18.67;;;9.85;;
45254;SDS011;30989;52.078;21.014;2022-10-30T01:19:07;22.67;;;10.07;;
45254;SDS011;30989;52.078;21.014;2022-10-30T01:24:50;22.25;;;10.05;;
45254;SDS011;30989;52.078;21.014;2022-10-30T01:30:24;22.67;;;9.80;;
45254;SDS011;30989;52.078;21.014;2022-10-30T01:39:06;24.80;;;9.47;;
45254;SDS011;30989;52.078;21.014;2022-10-30T01:44:02;22.40;;;9.52;;
45254;SDS011;30989;52.078;21.014;2022-10-30T01:55:15;20.13;;;9.80;;
45254;SDS011;30989;52.078;21.014;2022-10-30T01:57:48;18.83;;;9.93;;
45254;SDS011;30989;52.078;21.014;2022-10-30T02:00:20;20.50;;;9.18;;
45254;SDS011;30989;52.078;21.014;2022-10-30T02:02:47;20.10;;;9.50;;
45254;SDS011;30989;52.078;21.014;2022-10-30T02:05:40;23.33;;;9.55;;
45254;SDS011;30989;52.078;21.014;2022-10-30T02:08:09;17.95;;;9.25;;
45254;SDS011;30989;52.078;21.014;2022-10-30T02:10:37;18.67;;;8.80;;
45254;SDS011;30989;52.078;21.014;2022-10-30T02:13:03;20.70;;;9.32;;
45254;SDS011;30989;52.078;21.014;2022-10-30T02:15:29;17.10;;;8.90;;
45254;SDS011;30989;52.078;21.014;2022-10-30T02:17:55;23.90;;;10.75;;
45254;SDS011;30989;52.078;21.014;2022-10-30T02:20:21;26.27;;;10.10;;
45254;SDS011;30989;52.078;21.014;2022-10-30T02:22:48;20.70;;;9.18;;
45254;SDS011;30989;52.078;21.014;2022-10-30T02:25:14;24.10;;;10.65;;
45254;SDS011;30989;52.078;21.014;2022-10-30T02:27:40;26.58;;;10.70;;
45254;SDS011;30989;52.078;21.014;2022-10-30T02:30:08;14.63;;;8.60;;
45254;SDS011;30989;52.078;21.014;2022-10-30T02:32:35;20.45;;;10.73;;
45254;SDS011;30989;52.078;21.014;2022-10-30T02:35:00;16.67;;;8.93;;
45254;SDS011;30989;52.078;21.014;2022-10-30T02:37:26;19.23;;;9.80;;
45254;SDS011;30989;52.078;21.014;2022-10-30T02:39:51;23.00;;;10.15;;
45254;SDS011;30989;52.078;21.014;2022-10-30T02:42:17;19.58;;;9.85;;
45254;SDS011;30989;52.078;21.014;2022-10-30T02:44:43;22.10;;;9.95;;
45254;SDS011;30989;52.078;21.014;2022-10-30T02:47:09;23.80;;;10.15;;
45254;SDS011;30989;52.078;21.014;2022-10-30T02:49:35;16.92;;;9.35;;
45254;SDS011;30989;52.078;21.014;2022-10-30T02:52:01;22.50;;;11.05;;
45254;SDS011;30989;52.078;21.014;2022-10-30T02:54:27;22.60;;;10.23;;
45254;SDS011;30989;52.078;21.014;2022-10-30T02:56:52;22.65;;;9.70;;
45254;SDS011;30989;52.078;21.014;2022-10-30T02:59:19;29.42;;;12.93;;
45254;SDS011;30989;52.078;21.014;2022-10-30T03:01:48;17.58;;;10.13;;
45254;SDS011;30989;52.078;21.014;2022-10-30T03:04:13;22.77;;;10.10;;
45254;SDS011;30989;52.078;21.014;2022-10-30T03:06:41;18.65;;;9.15;;
45254;SDS011;30989;52.078;21.014;2022-10-30T03:09:07;24.75;;;10.35;;
45254;SDS011;30989;52.078;21.014;2022-10-30T03:11:32;16.88;;;9.30;;
45254;SDS011;30989;52.078;21.014;2022-10-30T03:13:58;28.15;;;9.88;;
45254;SDS011;30989;52.078;21.014;2022-10-30T03:16:24;19.85;;;9.48;;
45254;SDS011;30989;52.078;21.014;2022-10-30T03:18:53;22.42;;;11.43;;
45254;SDS011;30989;52.078;21.014;2022-10-30T03:21:20;19.40;;;9.73;;
45254;SDS011;30989;52.078;21.014;2022-10-30T03:23:48;25.42;;;9.63;;
45254;SDS011;30989;52.078;21.014;2022-10-30T03:26:14;24.67;;;9.05;;
45254;SDS011;30989;52.078;21.014;2022-10-30T03:28:56;25.38;;;9.80;;
45254;SDS011;30989;52.078;21.014;2022-10-30T03:31:22;18.85;;;8.68;;
45254;SDS011;30989;52.078;21.014;2022-10-30T03:34:06;18.55;;;8.77;;
45254;SDS011;30989;52.078;21.014;2022-10-30T03:36:31;20.55;;;8.73;;
45254;SDS011;30989;52.078;21.014;2022-10-30T03:38:57;24.92;;;9.73;;
45254;SDS011;30989;52.078;21.014;2022-10-30T03:41:24;22.75;;;8.90;;
45254;SDS011;30989;52.078;21.014;2022-10-30T03:43:49;20.98;;;8.65;;
45254;SDS011;30989;52.078;21.014;2022-10-30T03:46:15;15.10;;;7.95;;
45254;SDS011;30989;52.078;21.014;2022-10-30T03:48:41;16.20;;;8.32;;
45254;SDS011;30989;52.078;21.014;2022-10-30T03:51:08;18.20;;;8.85;;
45254;SDS011;30989;52.078;21.014;2022-10-30T03:53:33;19.30;;;9.05;;
45254;SDS011;30989;52.078;21.014;2022-10-30T03:56:00;25.98;;;9.65;;
45254;SDS011;30989;52.078;21.014;2022-10-30T03:58:36;18.45;;;7.97;;
45254;SDS011;30989;52.078;21.014;2022-10-30T04:01:05;16.83;;;8.20;;
45254;SDS011;30989;52.078;21.014;2022-10-30T04:03:35;20.85;;;9.93;;
45254;SDS011;30989;52.078;21.014;2022-10-30T04:06:01;18.63;;;9.60;;
45254;SDS011;30989;52.078;21.014;2022-10-30T04:08:27;22.55;;;11.02;;
45254;SDS011;30989;52.078;21.014;2022-10-30T04:10:52;24.20;;;9.75;;
45254;SDS011;30989;52.078;21.014;2022-10-30T04:13:18;18.48;;;9.77;;
45254;SDS011;30989;52.078;21.014;2022-10-30T04:15:50;15.93;;;9.63;;
45254;SDS011;30989;52.078;21.014;2022-10-30T04:18:18;22.60;;;9.38;;
45254;SDS011;30989;52.078;21.014;2022-10-30T04:20:45;21.90;;;9.68;;
45254;SDS011;30989;52.078;21.014;2022-10-30T04:23:14;27.67;;;10.38;;
45254;SDS011;30989;52.078;21.014;2022-10-30T04:25:41;24.60;;;10.73;;
45254;SDS011;30989;52.078;21.014;2022-10-30T04:28:07;17.52;;;9.57;;
45254;SDS011;30989;52.078;21.014;2022-10-30T04:30:34;17.35;;;10.13;;
45254;SDS011;30989;52.078;21.014;2022-10-30T04:33:01;20.00;;;9.38;;
45254;SDS011;30989;52.078;21.014;2022-10-30T04:35:30;20.00;;;10.45;;
45254;SDS011;30989;52.078;21.014;2022-10-30T04:37:58;21.48;;;9.30;;
45254;SDS011;30989;52.078;21.014;2022-10-30T04:40:26;22.10;;;10.00;;
45254;SDS011;30989;52.078;21.014;2022-10-30T04:42:57;19.15;;;9.77;;
45254;SDS011;30989;52.078;21.014;2022-10-30T04:45:23;18.30;;;8.88;;
45254;SDS011;30989;52.078;21.014;2022-10-30T04:47:50;18.60;;;9.25;;
45254;SDS011;30989;52.078;21.014;2022-10-30T04:50:16;24.40;;;9.23;;
45254;SDS011;30989;52.078;21.014;2022-10-30T04:52:43;23.75;;;10.43;;
45254;SDS011;30989;52.078;21.014;2022-10-30T04:55:09;16.30;;;8.68;;
45254;SDS011;30989;52.078;21.014;2022-10-30T04:57:36;22.45;;;9.88;;
45254;SDS011;30989;52.078;21.014;2022-10-30T05:00:03;24.65;;;9.75;;
45254;SDS011;30989;52.078;21.014;2022-10-30T05:02:30;25.58;;;10.13;;
45254;SDS011;30989;52.078;21.014;2022-10-30T05:04:56;21.08;;;9.77;;
45254;SDS011;30989;52.078;21.014;2022-10-30T05:07:22;19.13;;;9.82;;
45254;SDS011;30989;52.078;21.014;2022-10-30T05:09:48;20.95;;;9.60;;
45254;SDS011;30989;52.078;21.014;2022-10-30T05:12:14;22.25;;;9.63;;
45254;SDS011;30989;52.078;21.014;2022-10-30T05:14:49;21.90;;;10.60;;
45254;SDS011;30989;52.078;21.014;2022-10-30T05:17:14;22.52;;;11.07;;
45254;SDS011;30989;52.078;21.014;2022-10-30T05:19:41;19.90;;;10.20;;
45254;SDS011;30989;52.078;21.014;2022-10-30T05:22:06;19.60;;;9.88;;
45254;SDS011;30989;52.078;21.014;2022-10-30T05:24:34;23.92;;;10.85;;
45254;SDS011;30989;52.078;21.014;2022-10-30T05:26:59;24.02;;;12.13;;
45254;SDS011;30989;52.078;21.014;2022-10-30T05:29:25;29.60;;;9.90;;
45254;SDS011;30989;52.078;21.014;2022-10-30T05:31:50;21.00;;;9.50;;
45254;SDS011;30989;52.078;21.014;2022-10-30T05:34:15;25.50;;;11.25;;
45254;SDS011;30989;52.078;21.014;2022-10-30T05:36:43;33.25;;;12.02;;
45254;SDS011;30989;52.078;21.014;2022-10-30T05:39:12;22.92;;;11.65;;
45254;SDS011;30989;52.078;21.014;2022-10-30T05:41:41;20.80;;;9.73;;
45254;SDS011;30989;52.078;21.014;2022-10-30T05:44:07;29.27;;;10.25;;
45254;SDS011;30989;52.078;21.014;2022-10-30T05:46:33;29.15;;;12.90;;
45254;SDS011;30989;52.078;21.014;2022-10-30T05:49:10;22.13;;;9.55;;
45254;SDS011;30989;52.078;21.014;2022-10-30T05:51:36;27.17;;;10.15;;
45254;SDS011;30989;52.078;21.014;2022-10-30T05:54:03;22.73;;;12.35;;
45254;SDS011;30989;52.078;21.014;2022-10-30T05:56:31;23.27;;;10.38;;
45254;SDS011;30989;52.078;21.014;2022-10-30T05:58:57;26.33;;;11.35;;
45254;SDS011;30989;52.078;21.014;2022-10-30T06:01:23;24.05;;;10.40;;
45254;SDS011;30989;52.078;21.014;2022-10-30T06:03:52;20.77;;;10.57;;
45254;SDS011;30989;52.078;21.014;2022-10-30T06:06:18;25.85;;;12.13;;
45254;SDS011;30989;52.078;21.014;2022-10-30T06:08:44;16.73;;;8.30;;
45254;SDS011;30989;52.078;21.014;2022-10-30T06:11:28;21.73;;;9.43;;
45254;SDS011;30989;52.078;21.014;2022-10-30T06:13:56;20.75;;;10.32;;
45254;SDS011;30989;52.078;21.014;2022-10-30T06:16:33;20.10;;;10.18;;
45254;SDS011;30989;52.078;21.014;2022-10-30T06:19:11;22.50;;;11.35;;
45254;SDS011;30989;52.078;21.014;2022-10-30T06:21:37;19.27;;;9.75;;
45254;SDS011;30989;52.078;21.014;2022-10-30T06:24:22;19.33;;;10.77;;
45254;SDS011;30989;52.078;21.014;2022-10-30T06:27:01;20.10;;;10.57;;
45254;SDS011;30989;52.078;21.014;2022-10-30T06:29:27;21.60;;;10.85;;
45254;SDS011;30989;52.078;21.014;2022-10-30T06:31:53;21.77;;;9.85;;
45254;SDS011;30989;52.078;21.014;2022-10-30T06:34:19;26.25;;;11.15;;
45254;SDS011;30989;52.078;21.014;2022-10-30T06:36:45;25.88;;;9.57;;
45254;SDS011;30989;52.078;21.014;2022-10-30T06:39:10;19.45;;;9.73;;
45254;SDS011;30989;52.078;21.014;2022-10-30T06:41:42;22.38;;;10.60;;
45254;SDS011;30989;52.078;21.014;2022-10-30T06:44:31;19.75;;;9.20;;
45254;SDS011;30989;52.078;21.014;2022-10-30T06:46:56;21.48;;;9.98;;
45254;SDS011;30989;52.078;21.014;2022-10-30T06:49:22;18.45;;;9.77;;
45254;SDS011;30989;52.078;21.014;2022-10-30T06:51:49;26.15;;;10.20;;
45254;SDS011;30989;52.078;21.014;2022-10-30T06:54:15;20.33;;;10.63;;
45254;SDS011;30989;52.078;21.014;2022-10-30T06:57:00;22.13;;;9.98;;
45254;SDS011;30989;52.078;21.014;2022-10-30T06:59:48;21.42;;;10.88;;
45254;SDS011;30989;52.078;21.014;2022-10-30T07:02:56;27.15;;;12.30;;
45254;SDS011;30989;52.078;21.014;2022-10-30T07:05:22;21.45;;;11.05;;
45254;SDS011;30989;52.078;21.014;2022-10-30T07:07:48;30.55;;;12.45;;
45254;SDS011;30989;52.078;21.014;2022-10-30T07:10:13;21.65;;;10.30;;
45254;SDS011;30989;52.078;21.014;2022-10-30T07:13:00;21.88;;;10.65;;
45254;SDS011;30989;52.078;21.014;2022-10-30T07:15:49;29.42;;;12.20;;
45254;SDS011;30989;52.078;21.014;2022-10-30T07:18:21;21.35;;;9.93;;
45254;SDS011;30989;52.078;21.014;2022-10-30T07:20:52;26.17;;;10.70;;
45254;SDS011;30989;52.078;21.014;2022-10-30T07:23:18;20.00;;;10.00;;
45254;SDS011;30989;52.078;21.014;2022-10-30T07:25:44;24.20;;;12.63;;
45254;SDS011;30989;52.078;21.014;2022-10-30T07:28:19;26.92;;;11.35;;
45254;SDS011;30989;52.078;21.014;2022-10-30T07:31:08;20.25;;;10.13;;
45254;SDS011;30989;52.078;21.014;2022-10-30T07:33:56;22.60;;;11.48;;
45254;SDS011;30989;52.078;21.014;2022-10-30T07:36:51;27.95;;;12.52;;
45254;SDS011;30989;52.078;21.014;2022-10-30T07:39:34;24.90;;;10.32;;
45254;SDS011;30989;52.078;21.014;2022-10-30T07:42:22;21.23;;;9.55;;
45254;SDS011;30989;52.078;21.014;2022-10-30T07:45:07;21.08;;;9.77;;
45254;SDS011;30989;52.078;21.014;2022-10-30T07:47:53;21.08;;;8.68;;
45254;SDS011;30989;52.078;21.014;2022-10-30T07:50:33;20.52;;;8.77;;
45254;SDS011;30989;52.078;21.014;2022-10-30T07:52:58;17.35;;;8.35;;
45254;SDS011;30989;52.078;21.014;2022-10-30T07:55:27;22.23;;;9.18;;
45254;SDS011;30989;52.078;21.014;2022-10-30T07:58:11;14.98;;;8.93;;
45254;SDS011;30989;52.078;21.014;2022-10-30T08:01:12;19.35;;;8.63;;
45254;SDS011;30989;52.078;21.014;2022-10-30T08:03:37;20.52;;;8.45;;
45254;SDS011;30989;52.078;21.014;2022-10-30T08:06:14;18.45;;;8.35;;
45254;SDS011;30989;52.078;21.014;2022-10-30T08:08:39;17.30;;;8.15;;
45254;SDS011;30989;52.078;21.014;2022-10-30T08:11:17;18.92;;;8.65;;
45254;SDS011;30989;52.078;21.014;2022-10-30T08:13:42;16.73;;;7.22;;
45254;SDS011;30989;52.078;21.014;2022-10-30T08:16:08;16.50;;;7.95;;
45254;SDS011;30989;52.078;21.014;2022-10-30T08:18:33;19.33;;;7.47;;
45254;SDS011;30989;52.078;21.014;2022-10-30T08:21:00;16.83;;;7.90;;
45254;SDS011;30989;52.078;21.014;2022-10-30T08:23:26;22.60;;;8.93;;
45254;SDS011;30989;52.078;21.014;2022-10-30T08:25:55;19.63;;;8.05;;
45254;SDS011;30989;52.078;21.014;2022-10-30T08:28:24;24.15;;;7.95;;
45254;SDS011;30989;52.078;21.014;2022-10-30T08:30:49;20.48;;;8.60;;
45254;SDS011;30989;52.078;21.014;2022-10-30T08:33:24;16.75;;;7.13;;
45254;SDS011;30989;52.078;21.014;2022-10-30T08:35:54;14.47;;;7.00;;
45254;SDS011;30989;52.078;21.014;2022-10-30T08:38:21;17.30;;;7.57;;
45254;SDS011;30989;52.078;21.014;2022-10-30T08:40:57;28.42;;;7.63;;
45254;SDS011;30989;52.078;21.014;2022-10-30T08:43:25;14.05;;;6.90;;
45254;SDS011;30989;52.078;21.014;2022-10-30T08:45:52;17.63;;;7.53;;
45254;SDS011;30989;52.078;21.014;2022-10-30T08:48:19;20.63;;;7.82;;
45254;SDS011;30989;52.078;21.014;2022-10-30T08:50:45;10.85;;;6.32;;
45254;SDS011;30989;52.078;21.014;2022-10-30T08:53:16;19.10;;;7.60;;
45254;SDS011;30989;52.078;21.014;2022-10-30T08:55:43;16.65;;;8.70;;
45254;SDS011;30989;52.078;21.014;2022-10-30T08:58:17;13.60;;;5.90;;
45254;SDS011;30989;52.078;21.014;2022-10-30T09:00:44;14.15;;;7.05;;
45254;SDS011;30989;52.078;21.014;2022-10-30T09:03:09;16.70;;;7.15;;
45254;SDS011;30989;52.078;21.014;2022-10-30T09:05:38;17.17;;;6.90;;
45254;SDS011;30989;52.078;21.014;2022-10-30T09:08:33;15.93;;;7.82;;
45254;SDS011;30989;52.078;21.014;2022-10-30T09:11:21;15.77;;;6.47;;
45254;SDS011;30989;52.078;21.014;2022-10-30T09:13:46;15.90;;;6.28;;
45254;SDS011;30989;52.078;21.014;2022-10-30T09:16:12;13.05;;;6.28;;
45254;SDS011;30989;52.078;21.014;2022-10-30T09:18:38;11.50;;;5.60;;
45254;SDS011;30989;52.078;21.014;2022-10-30T09:21:04;11.23;;;5.63;;
45254;SDS011;30989;52.078;21.014;2022-10-30T09:23:32;9.98;;;4.13;;
45254;SDS011;30989;52.078;21.014;2022-10-30T09:26:20;15.57;;;5.40;;
45254;SDS011;30989;52.078;21.014;2022-10-30T09:28:53;8.25;;;4.47;;
45254;SDS011;30989;52.078;21.014;2022-10-30T09:31:50;11.07;;;4.57;;
45254;SDS011;30989;52.078;21.014;2022-10-30T09:34:18;10.52;;;5.32;;
45254;SDS011;30989;52.078;21.014;2022-10-30T09:36:49;8.50;;;3.42;;
45254;SDS011;30989;52.078;21.014;2022-10-30T09:39:16;10.20;;;4.53;;
45254;SDS011;30989;52.078;21.014;2022-10-30T09:44:40;12.80;;;5.75;;
45254;SDS011;30989;52.078;21.014;2022-10-30T09:58:15;10.10;;;3.97;;
45254;SDS011;30989;52.078;21.014;2022-10-30T10:04:00;9.85;;;4.20;;
45254;SDS011;30989;52.078;21.014;2022-10-30T10:06:45;10.90;;;4.00;;
45254;SDS011;30989;52.078;21.014;2022-10-30T10:09:51;8.20;;;4.55;;
45254;SDS011;30989;52.078;21.014;2022-10-30T10:12:38;8.23;;;3.65;;
45254;SDS011;30989;52.078;21.014;2022-10-30T10:15:14;8.90;;;3.90;;
45254;SDS011;30989;52.078;21.014;2022-10-30T10:17:46;12.80;;;3.95;;
45254;SDS011;30989;52.078;21.014;2022-10-30T10:20:29;7.68;;;3.63;;
45254;SDS011;30989;52.078;21.014;2022-10-30T10:22:59;14.70;;;6.47;;
45254;SDS011;30989;52.078;21.014;2022-10-30T10:25:30;5.50;;;3.10;;
45254;SDS011;30989;52.078;21.014;2022-10-30T10:28:41;7.82;;;3.10;;
45254;SDS011;30989;52.078;21.014;2022-10-30T10:45:20;5.75;;;3.38;;
45254;SDS011;30989;52.078;21.014;2022-10-30T10:51:13;8.15;;;3.42;;
45254;SDS011;30989;52.078;21.014;2022-10-30T10:53:54;8.70;;;3.55;;
45254;SDS011;30989;52.078;21.014;2022-10-30T10:56:29;6.95;;;3.45;;
45254;SDS011;30989;52.078;21.014;2022-10-30T10:58:59;7.80;;;3.38;;
45254;SDS011;30989;52.078;21.014;2022-10-30T11:01:31;5.63;;;2.47;;
45254;SDS011;30989;52.078;21.014;2022-10-30T11:04:04;6.75;;;2.40;;
45254;SDS011;30989;52.078;21.014;2022-10-30T11:06:34;9.03;;;2.47;;
45254;SDS011;30989;52.078;21.014;2022-10-30T11:09:18;6.50;;;2.28;;
45254;SDS011;30989;52.078;21.014;2022-10-30T11:11:49;6.80;;;2.45;;
45254;SDS011;30989;52.078;21.014;2022-10-30T11:14:20;5.53;;;2.43;;
45254;SDS011;30989;52.078;21.014;2022-10-30T11:19:29;5.55;;;2.10;;
45254;SDS011;30989;52.078;21.014;2022-10-30T11:21:56;5.53;;;2.05;;
45254;SDS011;30989;52.078;21.014;2022-10-30T11:24:27;5.00;;;2.70;;
45254;SDS011;30989;52.078;21.014;2022-10-30T11:29:59;4.20;;;2.13;;
45254;SDS011;30989;52.078;21.014;2022-10-30T11:32:27;3.80;;;1.77;;
45254;SDS011;30989;52.078;21.014;2022-10-30T11:37:33;3.85;;;1.75;;
45254;SDS011;30989;52.078;21.014;2022-10-30T11:40:04;3.30;;;1.40;;
45254;SDS011;30989;52.078;21.014;2022-10-30T11:45:33;3.50;;;1.50;;
45254;SDS011;30989;52.078;21.014;2022-10-30T11:48:03;5.57;;;1.90;;
45254;SDS011;30989;52.078;21.014;2022-10-30T11:50:34;5.80;;;2.00;;
45254;SDS011;30989;52.078;21.014;2022-10-30T11:53:01;5.05;;;2.78;;
45254;SDS011;30989;52.078;21.014;2022-10-30T11:55:36;6.05;;;2.42;;
45254;SDS011;30989;52.078;21.014;2022-10-30T11:58:06;7.03;;;2.42;;
45254;SDS011;30989;52.078;21.014;2022-10-30T12:00:35;6.28;;;2.05;;
45254;SDS011;30989;52.078;21.014;2022-10-30T12:03:09;4.15;;;2.60;;
45254;SDS011;30989;52.078;21.014;2022-10-30T12:05:51;4.13;;;2.05;;
45254;SDS011;30989;52.078;21.014;2022-10-30T12:08:32;5.05;;;2.40;;
45254;SDS011;30989;52.078;21.014;2022-10-30T12:10:58;7.50;;;2.60;;
45254;SDS011;30989;52.078;21.014;2022-10-30T12:13:25;7.13;;;2.90;;
45254;SDS011;30989;52.078;21.014;2022-10-30T12:16:04;5.65;;;2.67;;
45254;SDS011;30989;52.078;21.014;2022-10-30T12:18:42;5.03;;;2.13;;
45254;SDS011;30989;52.078;21.014;2022-10-30T12:21:18;7.05;;;2.50;;
45254;SDS011;30989;52.078;21.014;2022-10-30T12:23:48;4.00;;;2.40;;
45254;SDS011;30989;52.078;21.014;2022-10-30T12:26:18;4.95;;;1.92;;
45254;SDS011;30989;52.078;21.014;2022-10-30T12:28:57;4.50;;;2.53;;
45254;SDS011;30989;52.078;21.014;2022-10-30T12:31:32;9.25;;;2.97;;
45254;SDS011;30989;52.078;21.014;2022-10-30T12:34:11;5.43;;;2.20;;
45254;SDS011;30989;52.078;21.014;2022-10-30T12:36:43;4.13;;;1.83;;
45254;SDS011;30989;52.078;21.014;2022-10-30T12:39:16;7.50;;;2.10;;
45254;SDS011;30989;52.078;21.014;2022-10-30T12:44:35;4.90;;;2.28;;
45254;SDS011;30989;52.078;21.014;2022-10-30T12:47:07;5.63;;;2.85;;
45254;SDS011;30989;52.078;21.014;2022-10-30T12:49:57;3.95;;;2.10;;
45254;SDS011;30989;52.078;21.014;2022-10-30T13:13:42;5.32;;;2.72;;
45254;SDS011;30989;52.078;21.014;2022-10-30T13:16:15;4.80;;;2.47;;
45254;SDS011;30989;52.078;21.014;2022-10-30T13:18:46;4.45;;;2.25;;
45254;SDS011;30989;52.078;21.014;2022-10-30T13:21:23;5.13;;;1.90;;
45254;SDS011;30989;52.078;21.014;2022-10-30T13:29:38;8.48;;;2.38;;
45254;SDS011;30989;52.078;21.014;2022-10-30T13:34:51;5.55;;;2.15;;
45254;SDS011;30989;52.078;21.014;2022-10-30T13:53:35;4.72;;;2.28;;
45254;SDS011;30989;52.078;21.014;2022-10-30T13:56:06;6.30;;;1.80;;
45254;SDS011;30989;52.078;21.014;2022-10-30T14:01:38;5.45;;;2.03;;
45254;SDS011;30989;52.078;21.014;2022-10-30T14:09:53;5.28;;;2.60;;
45254;SDS011;30989;52.078;21.014;2022-10-30T14:16:00;5.15;;;1.80;;
45254;SDS011;30989;52.078;21.014;2022-10-30T14:20:38;5.78;;;2.67;;
45254;SDS011;30989;52.078;21.014;2022-10-30T14:23:12;5.93;;;1.95;;
45254;SDS011;30989;52.078;21.014;2022-10-30T14:25:40;6.40;;;2.40;;
45254;SDS011;30989;52.078;21.014;2022-10-30T14:28:19;4.57;;;1.83;;
45254;SDS011;30989;52.078;21.014;2022-10-30T14:30:45;21.05;;;8.13;;
45254;SDS011;30989;52.078;21.014;2022-10-30T14:36:18;7.97;;;2.30;;
45254;SDS011;30989;52.078;21.014;2022-10-30T14:38:51;5.22;;;2.05;;
45254;SDS011;30989;52.078;21.014;2022-10-30T14:41:23;6.63;;;2.20;;
45254;SDS011;30989;52.078;21.014;2022-10-30T14:52:42;6.03;;;2.58;;
45254;SDS011;30989;52.078;21.014;2022-10-30T14:58:24;7.90;;;2.58;;
45254;SDS011;30989;52.078;21.014;2022-10-30T15:01:15;10.00;;;3.58;;
45254;SDS011;30989;52.078;21.014;2022-10-30T15:04:18;7.10;;;2.92;;
45254;SDS011;30989;52.078;21.014;2022-10-30T15:14:45;7.47;;;3.08;;
45254;SDS011;30989;52.078;21.014;2022-10-30T15:17:18;7.20;;;3.25;;
45254;SDS011;30989;52.078;21.014;2022-10-30T15:19:52;17.80;;;4.28;;
45254;SDS011;30989;52.078;21.014;2022-10-30T15:22:18;12.80;;;4.78;;
45254;SDS011;30989;52.078;21.014;2022-10-30T15:24:47;14.50;;;6.38;;
45254;SDS011;30989;52.078;21.014;2022-10-30T15:27:16;15.85;;;7.80;;
45254;SDS011;30989;52.078;21.014;2022-10-30T15:29:45;15.55;;;6.75;;
45254;SDS011;30989;52.078;21.014;2022-10-30T15:32:16;14.32;;;5.70;;
45254;SDS011;30989;52.078;21.014;2022-10-30T15:34:53;15.02;;;6.53;;
45254;SDS011;30989;52.078;21.014;2022-10-30T15:37:21;14.82;;;6.90;;
45254;SDS011;30989;52.078;21.014;2022-10-30T15:39:47;17.65;;;8.63;;
45254;SDS011;30989;52.078;21.014;2022-10-30T15:42:13;13.25;;;6.68;;
45254;SDS011;30989;52.078;21.014;2022-10-30T15:44:40;18.85;;;7.40;;
45254;SDS011;30989;52.078;21.014;2022-10-30T15:47:12;16.83;;;6.88;;
45254;SDS011;30989;52.078;21.014;2022-10-30T15:49:41;16.63;;;7.03;;
45254;SDS011;30989;52.078;21.014;2022-10-30T15:52:14;22.73;;;10.02;;
45254;SDS011;30989;52.078;21.014;2022-10-30T15:55:00;23.38;;;9.07;;
45254;SDS011;30989;52.078;21.014;2022-10-30T15:57:33;35.33;;;15.18;;
45254;SDS011;30989;52.078;21.014;2022-10-30T16:00:03;19.20;;;8.18;;
45254;SDS011;30989;52.078;21.014;2022-10-30T16:02:32;15.43;;;7.15;;
45254;SDS011;30989;52.078;21.014;2022-10-30T16:04:58;16.27;;;7.20;;
45254;SDS011;30989;52.078;21.014;2022-10-30T16:07:25;15.25;;;7.10;;
45254;SDS011;30989;52.078;21.014;2022-10-30T16:12:19;16.90;;;8.23;;
45254;SDS011;30989;52.078;21.014;2022-10-30T16:14:45;19.10;;;8.77;;
45254;SDS011;30989;52.078;21.014;2022-10-30T16:17:11;21.80;;;9.35;;
45254;SDS011;30989;52.078;21.014;2022-10-30T16:19:42;17.25;;;8.27;;
45254;SDS011;30989;52.078;21.014;2022-10-30T16:22:13;19.58;;;8.93;;
45254;SDS011;30989;52.078;21.014;2022-10-30T16:24:40;22.10;;;9.05;;
45254;SDS011;30989;52.078;21.014;2022-10-30T16:27:13;22.55;;;10.88;;
45254;SDS011;30989;52.078;21.014;2022-10-30T16:29:46;28.42;;;11.80;;
45254;SDS011;30989;52.078;21.014;2022-10-30T16:32:15;20.33;;;9.02;;
45254;SDS011;30989;52.078;21.014;2022-10-30T16:34:43;22.48;;;10.10;;
45254;SDS011;30989;52.078;21.014;2022-10-30T16:37:12;27.05;;;11.35;;
45254;SDS011;30989;52.078;21.014;2022-10-30T16:42:17;22.55;;;9.60;;
45254;SDS011;30989;52.078;21.014;2022-10-30T16:44:44;21.48;;;10.68;;
45254;SDS011;30989;52.078;21.014;2022-10-30T16:49:42;33.70;;;12.02;;
45254;SDS011;30989;52.078;21.014;2022-10-30T16:52:12;29.90;;;13.90;;
45254;SDS011;30989;52.078;21.014;2022-10-30T16:54:41;35.35;;;13.50;;
45254;SDS011;30989;52.078;21.014;2022-10-30T16:57:18;27.92;;;13.75;;
45254;SDS011;30989;52.078;21.014;2022-10-30T16:59:49;24.20;;;12.25;;
45254;SDS011;30989;52.078;21.014;2022-10-30T17:02:20;25.10;;;13.25;;
45254;SDS011;30989;52.078;21.014;2022-10-30T17:05:09;19.65;;;8.50;;
45254;SDS011;30989;52.078;21.014;2022-10-30T17:07:34;21.75;;;11.07;;
45254;SDS011;30989;52.078;21.014;2022-10-30T17:10:02;24.15;;;11.27;;
45254;SDS011;30989;52.078;21.014;2022-10-30T17:12:28;34.40;;;13.45;;
45254;SDS011;30989;52.078;21.014;2022-10-30T17:15:01;27.63;;;12.85;;
45254;SDS011;30989;52.078;21.014;2022-10-30T17:17:37;27.80;;;12.05;;
45254;SDS011;30989;52.078;21.014;2022-10-30T17:20:25;27.75;;;12.48;;
45254;SDS011;30989;52.078;21.014;2022-10-30T17:23:02;21.38;;;11.52;;
45254;SDS011;30989;52.078;21.014;2022-10-30T17:25:34;27.40;;;12.60;;
45254;SDS011;30989;52.078;21.014;2022-10-30T17:28:01;25.97;;;12.40;;
45254;SDS011;30989;52.078;21.014;2022-10-30T17:35:47;36.95;;;17.73;;
45254;SDS011;30989;52.078;21.014;2022-10-30T17:38:13;35.35;;;15.45;;